Time;durP1;ratioP1;P1;durP2;ratioP2;P2;SDS_P1;SDS_P2;PMS_P1;PMS_P2;Temp;Humidity;BMP_temperature;BMP_pressure;BME280_temperature;BME280_humidity;BME280_pressure;Samples;Min_cycle;Max_cycle;Signal;HPM_P1;HPM_P2
2023/12/25 00:00:07;;;;;;;16.88;6.15;;;;;;;10.93;100.00;100397.31;5041213;28;20080;-66
2023/12/25 00:02:32;;;;;;;17.63;6.43;;;;;;;10.92;100.00;100406.75;5040043;28;20491;-66
2023/12/25 00:04:58;;;;;;;17.73;7.18;;;;;;;10.94;100.00;100414.75;5041579;28;20025;-66
2023/12/25 00:07:24;;;;;;;15.18;5.68;;;;;;;10.93;100.00;100410.34;5041897;28;20358;-67
2023/12/25 00:09:49;;;;;;;17.17;7.03;;;;;;;10.92;100.00;100415.03;5049102;28;20021;-67
2023/12/25 00:12:14;;;;;;;15.80;6.38;;;;;;;10.91;100.00;100420.91;5049106;28;20086;-65
2023/12/25 00:14:40;;;;;;;16.23;5.72;;;;;;;10.91;100.00;100420.91;5053631;28;20038;-65
2023/12/25 00:17:05;;;;;;;16.30;6.40;;;;;;;10.87;100.00;100412.44;5040799;28;20117;-65
2023/12/25 00:19:30;;;;;;;17.33;7.05;;;;;;;10.87;100.00;100417.13;5046934;28;20401;-66
2023/12/25 00:21:58;;;;;;;17.90;6.60;;;;;;;10.86;100.00;100412.75;5047898;28;20064;-66
2023/12/25 00:24:23;;;;;;;17.25;5.88;;;;;;;10.88;100.00;100397.47;5045989;28;20035;-66
2023/12/25 00:26:48;;;;;;;16.17;6.15;;;;;;;10.84;100.00;100387.34;5057023;28;20025;-66
2023/12/25 00:29:14;;;;;;;16.75;6.10;;;;;;;10.86;100.00;100390.63;5049480;28;20079;-66
2023/12/25 00:31:39;;;;;;;16.83;6.53;;;;;;;10.85;100.00;100395.31;5050552;28;20021;-66
2023/12/25 00:34:04;;;;;;;17.33;6.20;;;;;;;10.84;100.00;100388.16;5054822;28;20037;-66
2023/12/25 00:36:29;;;;;;;17.45;6.38;;;;;;;10.80;100.00;100395.47;5045774;28;20052;-64
2023/12/25 00:38:55;;;;;;;16.08;5.85;;;;;;;10.80;100.00;100401.00;5041958;28;20021;-65
2023/12/25 00:41:20;;;;;;;17.23;5.80;;;;;;;10.81;100.00;100402.66;5056333;28;20033;-65
2023/12/25 00:43:46;;;;;;;17.70;6.07;;;;;;;10.77;100.00;100388.63;5038991;28;20396;-64
2023/12/25 00:46:11;;;;;;;18.02;5.78;;;;;;;10.79;100.00;100395.78;5039197;28;20526;-66
2023/12/25 00:48:36;;;;;;;17.48;6.03;;;;;;;10.82;100.00;100395.16;5044537;28;20021;-65
2023/12/25 00:51:02;;;;;;;18.38;6.50;;;;;;;10.80;100.00;100398.25;5055742;28;20108;-64
2023/12/25 00:53:27;;;;;;;16.83;6.30;;;;;;;10.81;100.00;100410.13;5041890;28;20029;-63
2023/12/25 00:55:53;;;;;;;17.00;5.97;;;;;;;10.82;100.00;100409.78;5045062;28;20032;-64
2023/12/25 00:58:20;;;;;;;17.30;6.43;;;;;;;10.87;100.00;100414.38;5049018;28;20420;-63
2023/12/25 01:00:45;;;;;;;16.75;5.90;;;;;;;10.87;100.00;100409.66;5045953;28;20440;-63
2023/12/25 01:03:10;;;;;;;18.45;6.68;;;;;;;10.88;100.00;100410.47;5039701;28;20049;-63
2023/12/25 01:05:36;;;;;;;17.05;6.57;;;;;;;10.85;100.00;100425.75;5034606;28;20116;-64
2023/12/25 01:08:01;;;;;;;18.25;6.32;;;;;;;10.84;100.00;100426.91;5040339;28;20020;-64
2023/12/25 01:10:26;;;;;;;18.35;6.65;;;;;;;10.85;100.00;100439.59;5046646;28;20477;-64
2023/12/25 01:12:52;;;;;;;17.27;6.03;;;;;;;10.90;100.00;100425.66;5050647;28;20108;-63
2023/12/25 01:15:17;;;;;;;18.40;6.50;;;;;;;10.88;100.00;100425.13;5041837;28;20040;-64
2023/12/25 01:17:42;;;;;;;18.08;6.60;;;;;;;10.86;100.00;100416.34;5042693;28;20098;-65
2023/12/25 01:20:08;;;;;;;15.23;5.38;;;;;;;10.93;100.00;100424.19;5039137;28;20080;-65
2023/12/25 01:22:33;;;;;;;18.75;7.07;;;;;;;10.90;100.00;100439.47;5036020;28;20048;-65
2023/12/25 01:24:58;;;;;;;18.85;6.60;;;;;;;10.92;100.00;100426.13;5044960;28;20100;-64
2023/12/25 01:27:24;;;;;;;17.90;6.60;;;;;;;10.95;100.00;100446.00;5048526;28;20048;-64
2023/12/25 01:29:49;;;;;;;18.35;7.57;;;;;;;10.94;100.00;100442.44;5041491;28;20216;-64
2023/12/25 01:32:14;;;;;;;17.77;6.78;;;;;;;10.97;100.00;100440.97;5042610;28;20349;-64
2023/12/25 01:34:40;;;;;;;17.52;6.72;;;;;;;10.95;100.00;100443.22;5041593;28;20028;-63
2023/12/25 01:37:05;;;;;;;17.55;6.65;;;;;;;10.98;100.00;100442.59;5043568;28;20021;-63
2023/12/25 01:39:30;;;;;;;18.75;7.00;;;;;;;10.95;100.00;100443.22;5033376;28;20493;-65
2023/12/25 01:41:55;;;;;;;16.70;6.57;;;;;;;10.94;100.00;100453.50;5048135;28;20012;-64
2023/12/25 01:44:21;;;;;;;18.67;7.03;;;;;;;10.98;100.00;100445.38;5038830;28;20025;-65
2023/12/25 01:46:47;;;;;;;18.17;6.22;;;;;;;10.96;100.00;100440.13;5047316;28;20384;-65
2023/12/25 01:49:12;;;;;;;18.88;6.38;;;;;;;10.99;100.00;100438.69;5041415;28;20029;-66
2023/12/25 01:51:37;;;;;;;18.77;6.38;;;;;;;11.01;100.00;100442.78;5047557;28;20029;-66
2023/12/25 01:54:04;;;;;;;19.13;5.97;;;;;;;11.01;100.00;100448.31;5039640;28;20435;-66
2023/12/25 01:56:30;;;;;;;18.27;6.45;;;;;;;11.02;100.00;100446.34;5037168;28;20112;-66
2023/12/25 01:58:56;;;;;;;18.08;6.80;;;;;;;11.00;100.00;100454.97;5034563;28;20488;-66
2023/12/25 02:01:21;;;;;;;18.83;7.03;;;;;;;10.98;100.00;100454.47;5036288;28;20018;-66
2023/12/25 02:03:47;;;;;;;19.60;7.03;;;;;;;10.98;100.00;100451.72;5036867;28;20053;-65
2023/12/25 02:06:13;;;;;;;20.30;7.18;;;;;;;10.98;100.00;100448.13;5039460;28;20079;-66
2023/12/25 02:08:39;;;;;;;18.13;6.93;;;;;;;10.95;100.00;100452.38;5045354;28;20414;-66
2023/12/25 02:11:04;;;;;;;18.70;7.00;;;;;;;10.93;100.00;100458.19;5039221;28;20072;-65
2023/12/25 02:13:30;;;;;;;19.17;7.32;;;;;;;10.95;100.00;100455.13;5049909;28;20021;-66
2023/12/25 02:15:56;;;;;;;18.80;7.22;;;;;;;10.97;100.00;100465.88;5043386;28;20039;-66
2023/12/25 02:18:22;;;;;;;20.23;7.25;;;;;;;10.98;100.00;100464.75;5042377;28;20074;-66
2023/12/25 02:20:48;;;;;;;21.08;7.45;;;;;;;10.98;100.00;100460.00;5041466;28;20124;-66
2023/12/25 02:23:16;;;;;;;18.98;7.20;;;;;;;10.99;100.00;100469.94;5038661;28;20427;-66
2023/12/25 02:25:55;;;;;;;20.05;7.70;;;;;;;11.04;100.00;100483.66;5045183;28;20429;-67
2023/12/25 02:28:22;;;;;;;19.65;8.10;;;;;;;11.00;100.00;100474.34;5039319;28;20472;-66
2023/12/25 02:30:47;;;;;;;19.38;8.07;;;;;;;10.99;100.00;100478.25;5039351;28;20025;-66
2023/12/25 02:33:13;;;;;;;19.83;7.07;;;;;;;10.99;100.00;100475.50;5048065;28;20048;-66
2023/12/25 02:35:38;;;;;;;17.80;6.53;;;;;;;11.04;100.00;100474.53;5035943;28;20144;-67
2023/12/25 02:38:03;;;;;;;17.98;7.00;;;;;;;11.07;100.00;100479.44;5037442;28;20127;-64
2023/12/25 02:40:28;;;;;;;19.73;7.03;;;;;;;11.05;100.00;100478.94;5036283;28;20116;-63
2023/12/25 02:42:54;;;;;;;18.50;7.05;;;;;;;11.09;100.00;100482.72;5041927;28;20020;-64
2023/12/25 02:45:19;;;;;;;18.00;6.90;;;;;;;11.12;100.00;100476.53;5048486;28;20037;-64
2023/12/25 02:47:45;;;;;;;18.17;7.30;;;;;;;11.12;100.00;100481.25;5038188;28;20055;-66
2023/12/25 02:50:10;;;;;;;19.58;7.28;;;;;;;11.14;100.00;100488.09;5044396;28;20025;-66
2023/12/25 02:52:35;;;;;;;18.70;6.90;;;;;;;11.14;100.00;100492.84;5042086;28;20493;-66
2023/12/25 02:55:00;;;;;;;18.90;7.07;;;;;;;11.13;100.00;100477.34;5049259;28;20112;-65
2023/12/25 02:57:26;;;;;;;18.23;6.72;;;;;;;11.16;100.00;100493.31;5037376;28;20056;-65
2023/12/25 02:59:51;;;;;;;17.58;6.15;;;;;;;11.20;100.00;100488.78;5043702;28;20206;-66
2023/12/25 03:02:16;;;;;;;17.88;6.45;;;;;;;11.20;100.00;100500.66;5047010;28;20045;-64
2023/12/25 03:04:41;;;;;;;16.60;5.88;;;;;;;11.17;100.00;100481.09;5039963;28;20111;-65
2023/12/25 03:07:07;;;;;;;17.73;6.30;;;;;;;11.22;100.00;100472.66;5037069;28;20037;-65
2023/12/25 03:09:32;;;;;;;17.63;6.05;;;;;;;11.18;100.00;100480.81;5046217;28;20028;-67
2023/12/25 03:11:57;;;;;;;16.52;5.75;;;;;;;11.18;100.00;100478.03;5042051;28;20505;-65
2023/12/25 03:14:22;;;;;;;19.50;5.57;;;;;;;11.18;100.00;100491.03;5037750;28;20071;-65
2023/12/25 03:16:48;;;;;;;17.65;6.00;;;;;;;11.21;100.00;100476.56;5054990;28;20450;-65
2023/12/25 03:19:13;;;;;;;16.83;5.70;;;;;;;11.21;100.00;100471.03;5048499;28;20109;-65
2023/12/25 03:21:38;;;;;;;15.52;5.40;;;;;;;11.21;100.00;100490.41;5050538;28;20051;-65
2023/12/25 03:24:04;;;;;;;15.70;5.20;;;;;;;11.19;100.00;100492.69;5047538;28;20025;-65
2023/12/25 03:26:29;;;;;;;15.50;5.22;;;;;;;11.18;100.00;100485.50;5049980;28;20075;-64
2023/12/25 03:28:54;;;;;;;16.52;5.40;;;;;;;11.21;100.00;100493.19;5048612;28;20025;-64
2023/12/25 03:31:20;;;;;;;16.08;5.82;;;;;;;11.21;100.00;100490.41;5050581;28;20036;-64
2023/12/25 03:33:45;;;;;;;16.48;5.68;;;;;;;11.21;100.00;100484.88;5056641;28;20403;-65
2023/12/25 03:36:11;;;;;;;17.70;6.00;;;;;;;11.22;100.00;100494.81;5049533;28;20123;-65
2023/12/25 03:38:36;;;;;;;17.80;6.32;;;;;;;11.22;100.00;100503.94;5046931;28;20052;-66
2023/12/25 03:41:02;;;;;;;18.67;6.15;;;;;;;11.20;100.00;100508.97;5049654;28;20028;-66
2023/12/25 03:43:27;;;;;;;16.13;6.28;;;;;;;11.22;100.00;100506.69;5054299;28;20515;-66
2023/12/25 03:45:53;;;;;;;17.92;6.32;;;;;;;11.22;100.00;100503.94;5052019;28;20119;-65
2023/12/25 03:48:20;;;;;;;18.27;6.82;;;;;;;11.19;100.00;100495.44;5051808;28;20026;-66
2023/12/25 03:50:45;;;;;;;18.65;6.57;;;;;;;11.23;100.00;100511.09;5042457;28;20093;-64
2023/12/25 03:53:11;;;;;;;17.17;6.65;;;;;;;11.22;100.00;100511.44;5049992;28;20209;-65
2023/12/25 03:55:36;;;;;;;19.10;7.57;;;;;;;11.21;100.00;100496.75;5042860;28;20021;-65
2023/12/25 03:58:02;;;;;;;19.73;7.55;;;;;;;11.26;100.00;100508.84;5050770;28;20052;-65
2023/12/25 04:00:28;;;;;;;18.98;7.38;;;;;;;11.26;100.00;100514.38;5042006;28;20022;-65
2023/12/25 04:02:53;;;;;;;19.83;8.40;;;;;;;11.26;100.00;100506.88;5051801;28;20086;-66
2023/12/25 04:05:18;;;;;;;19.35;8.23;;;;;;;11.26;100.00;100508.84;5036519;28;20024;-65
2023/12/25 04:07:44;;;;;;;19.10;7.93;;;;;;;11.24;100.00;100509.16;5048159;28;20025;-65
2023/12/25 04:10:09;;;;;;;19.08;8.13;;;;;;;11.24;100.00;100501.66;5042554;28;20497;-66
2023/12/25 04:12:34;;;;;;;20.20;8.45;;;;;;;11.26;100.00;100503.31;5046968;28;20032;-66
2023/12/25 04:15:00;;;;;;;19.63;8.57;;;;;;;11.24;100.00;100501.66;5050740;28;20044;-66
2023/12/25 04:17:26;;;;;;;20.17;8.30;;;;;;;11.27;100.00;100511.28;5045481;28;20028;-65
2023/12/25 04:19:51;;;;;;;20.52;9.27;;;;;;;11.21;100.00;100507.81;5048104;28;20033;-65
2023/12/25 04:22:17;;;;;;;21.20;8.63;;;;;;;11.20;100.00;100513.69;5051351;28;20025;-68
2023/12/25 04:24:42;;;;;;;20.73;8.52;;;;;;;11.17;100.00;100492.19;5041249;28;20457;-66
2023/12/25 04:27:07;;;;;;;20.85;9.07;;;;;;;11.14;100.00;100501.94;5039234;28;20041;-66
2023/12/25 04:29:32;;;;;;;20.55;8.85;;;;;;;11.10;100.00;100503.69;5041460;28;20041;-67
2023/12/25 04:31:58;;;;;;;19.63;8.40;;;;;;;11.06;100.00;100495.22;5038890;28;20056;-69
2023/12/25 04:34:24;;;;;;;20.60;8.60;;;;;;;11.03;100.00;100493.09;5041708;28;20087;-68
2023/12/25 04:36:49;;;;;;;19.65;8.07;;;;;;;11.04;100.00;100486.44;5040185;28;20025;-66
2023/12/25 04:39:15;;;;;;;19.52;8.20;;;;;;;11.00;100.00;100485.44;5044311;28;20449;-65
2023/12/25 04:41:40;;;;;;;21.05;8.77;;;;;;;11.03;100.00;100482.03;5045039;28;20033;-67
2023/12/25 04:44:05;;;;;;;20.17;8.50;;;;;;;11.01;100.00;100491.75;5040958;28;20017;-66
2023/12/25 04:46:30;;;;;;;20.75;8.57;;;;;;;10.95;100.00;100493.88;5048431;28;20032;-67
2023/12/25 04:48:56;;;;;;;21.63;8.85;;;;;;;10.94;100.00;100492.25;5039354;28;20093;-67
2023/12/25 04:51:21;;;;;;;19.92;8.68;;;;;;;10.92;100.00;100478.69;5040201;28;20556;-68
2023/12/25 04:53:46;;;;;;;19.90;8.32;;;;;;;10.93;100.00;100480.34;5038808;28;20116;-67
2023/12/25 04:56:12;;;;;;;20.40;8.15;;;;;;;10.90;100.00;100485.69;5054569;28;20044;-67
2023/12/25 04:58:37;;;;;;;19.88;8.15;;;;;;;10.89;100.00;100500.66;5040554;28;20049;-67
2023/12/25 05:01:06;;;;;;;18.65;7.85;;;;;;;10.85;100.00;100496.91;5043493;28;20048;-67
2023/12/25 05:03:31;;;;;;;20.83;8.27;;;;;;;10.84;100.00;100486.97;5045851;28;20029;-67
2023/12/25 05:05:57;;;;;;;20.45;9.25;;;;;;;10.79;100.00;100487.94;5040613;28;20155;-66
2023/12/25 05:08:22;;;;;;;20.80;8.30;;;;;;;10.78;100.00;100480.75;5042319;28;20465;-66
2023/12/25 05:10:47;;;;;;;19.08;7.82;;;;;;;10.72;100.00;100473.72;5041232;28;20072;-67
2023/12/25 05:13:13;;;;;;;19.85;8.35;;;;;;;10.70;100.00;100496.16;5043799;28;20481;-66
2023/12/25 05:15:38;;;;;;;19.77;8.13;;;;;;;10.68;100.00;100486.53;5048734;28;20435;-67
2023/12/25 05:18:04;;;;;;;19.73;8.15;;;;;;;10.67;100.00;100477.44;5052547;28;20047;-67
2023/12/25 05:20:29;;;;;;;19.73;6.97;;;;;;;10.64;100.00;100472.53;5044959;28;20037;-68
2023/12/25 05:22:54;;;;;;;17.55;6.78;;;;;;;10.68;100.00;100481.00;5042069;28;20028;-66
2023/12/25 05:25:20;;;;;;;17.50;5.60;;;;;;;10.69;100.00;100482.66;5043610;28;20499;-67
2023/12/25 05:27:45;;;;;;;16.35;5.60;;;;;;;10.70;100.00;100485.09;5038994;28;20025;-66
2023/12/25 05:30:11;;;;;;;14.48;4.88;;;;;;;10.71;100.00;100475.66;5050376;28;20063;-66
2023/12/25 05:32:37;;;;;;;12.30;4.35;;;;;;;10.71;100.00;100480.38;5045082;28;20437;-67
2023/12/25 05:35:05;;;;;;;12.57;4.45;;;;;;;10.70;100.00;100482.31;5042708;28;20025;-66
2023/12/25 05:37:31;;;;;;;13.75;4.20;;;;;;;10.70;100.00;100487.06;5041210;28;20035;-66
2023/12/25 05:39:57;;;;;;;11.52;3.95;;;;;;;10.71;100.00;100472.09;5048102;28;20021;-67
2023/12/25 05:42:22;;;;;;;12.30;4.22;;;;;;;10.69;100.00;100482.66;5044560;28;20654;-66
2023/12/25 05:44:47;;;;;;;11.35;3.90;;;;;;;10.66;100.00;100486.88;5038245;28;20056;-66
2023/12/25 05:47:13;;;;;;;11.82;3.72;;;;;;;10.66;100.00;100474.97;5032978;28;20033;-66
2023/12/25 05:49:38;;;;;;;8.65;3.30;;;;;;;10.67;100.00;100476.59;5050972;28;21570;-66
2023/12/25 05:52:04;;;;;;;10.48;3.60;;;;;;;10.63;100.00;100475.63;5045028;28;20506;-66
2023/12/25 05:54:29;;;;;;;10.55;3.35;;;;;;;10.67;100.00;100473.84;5040970;28;20032;-66
2023/12/25 05:56:54;;;;;;;10.63;3.40;;;;;;;10.62;100.00;100469.25;5040356;28;20057;-66
2023/12/25 05:59:20;;;;;;;8.40;3.22;;;;;;;10.63;100.00;100475.63;5035379;28;20017;-65
2023/12/25 06:01:45;;;;;;;9.82;3.30;;;;;;;10.59;100.00;100479.00;5034771;28;20441;-65
2023/12/25 06:04:11;;;;;;;11.32;3.47;;;;;;;10.58;100.00;100480.13;5041309;28;20099;-65
2023/12/25 06:06:37;;;;;;;7.90;3.17;;;;;;;10.61;100.00;100493.34;5044353;28;20021;-65
2023/12/25 06:09:02;;;;;;;7.13;3.00;;;;;;;10.63;100.00;100481.16;5045934;28;20100;-65
2023/12/25 06:11:27;;;;;;;8.40;3.00;;;;;;;10.60;100.00;100479.81;5042498;28;20500;-66
2023/12/25 06:13:53;;;;;;;8.70;3.20;;;;;;;10.60;100.00;100472.34;5038771;28;20033;-66
2023/12/25 06:16:18;;;;;;;9.48;3.55;;;;;;;10.59;100.00;100478.19;5048943;28;20024;-65
2023/12/25 06:18:43;;;;;;;8.15;3.25;;;;;;;10.61;100.00;100486.97;5049583;28;20468;-66
2023/12/25 06:21:08;;;;;;;8.35;3.35;;;;;;;10.60;100.00;100488.13;5034759;28;20034;-65
2023/12/25 06:23:35;;;;;;;9.60;3.22;;;;;;;10.59;100.00;100478.19;5049279;28;20056;-61
2023/12/25 06:26:00;;;;;;;9.00;3.30;;;;;;;10.59;100.00;100481.78;5053146;28;20111;-63
2023/12/25 06:28:25;;;;;;;10.57;3.67;;;;;;;10.57;100.00;100474.94;5047660;28;20121;-62
2023/12/25 06:30:51;;;;;;;9.25;3.67;;;;;;;10.57;100.00;100472.97;5042057;28;20412;-62
2023/12/25 06:33:18;;;;;;;11.13;3.70;;;;;;;10.61;100.00;100475.91;5040808;28;20037;-61
2023/12/25 06:35:43;;;;;;;11.20;4.18;;;;;;;10.58;100.00;100473.81;5057131;28;20167;-62
2023/12/25 06:38:08;;;;;;;11.60;4.20;;;;;;;10.57;100.00;100474.94;5043839;28;20104;-62
2023/12/25 06:40:34;;;;;;;14.20;4.22;;;;;;;10.58;100.00;100485.66;5041997;28;20036;-62
2023/12/25 06:42:59;;;;;;;12.13;4.10;;;;;;;10.60;100.00;100475.13;5041320;28;20037;-62
2023/12/25 06:45:24;;;;;;;14.13;4.75;;;;;;;10.61;100.00;100478.69;5035752;28;20124;-63
2023/12/25 06:47:52;;;;;;;12.38;4.40;;;;;;;10.59;100.00;100487.31;5052806;28;20067;-64
2023/12/25 06:50:17;;;;;;;13.23;4.88;;;;;;;10.61;100.00;100509.94;5052580;28;20033;-62
2023/12/25 06:52:43;;;;;;;10.38;3.15;;;;;;;10.52;100.00;100522.06;5055279;28;20017;-61
2023/12/25 06:55:09;;;;;;;5.90;1.60;;;;;;;10.37;100.00;100535.13;5049451;28;20057;-62
2023/12/25 06:57:35;;;;;;;3.83;1.30;;;;;;;10.17;100.00;100532.81;5045431;28;20085;-61
2023/12/25 07:00:00;;;;;;;2.80;1.00;;;;;;;10.06;100.00;100543.28;5045962;28;20172;-62
2023/12/25 07:02:25;;;;;;;2.90;1.30;;;;;;;9.95;100.00;100532.44;5053870;28;20491;-61
2023/12/25 07:04:50;;;;;;;1.38;1.20;;;;;;;9.74;100.00;100540.34;5045789;28;20025;-62
2023/12/25 07:07:16;;;;;;;2.28;0.93;;;;;;;9.58;100.00;100539.00;5049430;28;20507;-63
2023/12/25 07:09:43;;;;;;;3.55;1.00;;;;;;;9.46;100.00;100526.53;5040072;28;20031;-62
2023/12/25 07:12:09;;;;;;;4.22;1.10;;;;;;;9.31;100.00;100529.59;5043710;28;20036;-61
2023/12/25 07:14:34;;;;;;;4.28;1.40;;;;;;;9.21;100.00;100544.41;5039978;28;20025;-61
2023/12/25 07:17:00;;;;;;;5.75;1.27;;;;;;;9.16;100.00;100530.69;5038774;28;20057;-61
2023/12/25 07:19:25;;;;;;;3.97;1.10;;;;;;;9.10;100.00;100552.06;5038294;28;20036;-62
2023/12/25 07:21:50;;;;;;;4.40;1.30;;;;;;;9.03;100.00;100546.91;5040735;28;20075;-61
2023/12/25 07:24:16;;;;;;;5.68;1.27;;;;;;;9.00;100.00;100564.09;5041909;28;20123;-64
2023/12/25 07:26:42;;;;;;;5.88;1.17;;;;;;;8.88;100.00;100553.53;5040766;28;20041;-63
2023/12/25 07:29:07;;;;;;;4.03;1.40;;;;;;;8.94;100.00;100553.44;5039478;28;20481;-62
2023/12/25 07:31:33;;;;;;;7.70;1.90;;;;;;;8.92;100.00;100555.69;5047332;28;20036;-62
2023/12/25 07:33:58;;;;;;;5.00;1.40;;;;;;;8.94;100.00;100558.97;5051007;28;20025;-61
2023/12/25 07:36:23;;;;;;;5.32;1.50;;;;;;;8.95;100.00;100563.38;5051124;28;20108;-62
2023/12/25 07:38:48;;;;;;;3.83;1.20;;;;;;;8.86;100.00;100569.56;5051586;28;20052;-63
2023/12/25 07:41:14;;;;;;;5.65;1.40;;;;;;;8.83;100.00;100567.41;5046819;28;20049;-65
2023/12/25 07:43:39;;;;;;;5.63;1.60;;;;;;;8.81;100.00;100571.59;5053674;28;20043;-64
2023/12/25 07:46:06;;;;;;;3.33;1.52;;;;;;;8.78;100.00;100562.00;5038817;28;20472;-64
2023/12/25 07:48:31;;;;;;;2.83;1.50;;;;;;;8.78;100.00;100575.78;5038525;28;20497;-66
2023/12/25 07:50:57;;;;;;;6.22;1.73;;;;;;;8.76;100.00;100568.91;5041137;28;20036;-66
2023/12/25 07:53:22;;;;;;;2.67;1.33;;;;;;;8.78;100.00;100569.44;5037727;28;20017;-66
2023/12/25 07:55:47;;;;;;;2.83;1.70;;;;;;;8.80;100.00;100581.78;5037135;28;20080;-65
2023/12/25 07:58:14;;;;;;;3.10;1.55;;;;;;;8.76;100.00;100583.53;5036942;28;20069;-64
2023/12/25 08:00:42;;;;;;;5.22;1.70;;;;;;;8.76;100.00;100589.06;5038127;28;20148;-66
2023/12/25 08:03:07;;;;;;;2.33;1.38;;;;;;;8.82;100.00;100598.88;5037354;28;20147;-65
2023/12/25 08:05:33;;;;;;;2.10;0.98;;;;;;;8.87;100.00;100601.56;5036033;28;20084;-66
2023/12/25 08:07:58;;;;;;;1.55;1.02;;;;;;;8.90;100.00;100587.16;5039767;28;20025;-67
2023/12/25 08:10:23;;;;;;;1.30;0.90;;;;;;;8.92;100.00;100586.03;5041220;28;20035;-66
2023/12/25 08:12:49;;;;;;;2.35;1.00;;;;;;;8.96;100.00;100595.34;5039532;28;20033;-64
2023/12/25 08:15:15;;;;;;;1.98;0.80;;;;;;;8.94;100.00;100586.56;5037886;28;20468;-65
2023/12/25 08:17:40;;;;;;;1.17;0.98;;;;;;;8.98;100.00;100604.13;5039824;28;20389;-67
2023/12/25 08:20:06;;;;;;;4.30;1.23;;;;;;;9.01;100.00;100607.13;5037091;28;20025;-66
2023/12/25 08:22:32;;;;;;;4.28;1.30;;;;;;;9.03;100.00;100613.16;5034605;28;20108;-66
2023/12/25 08:24:57;;;;;;;3.88;1.27;;;;;;;9.04;100.00;100611.22;5040034;28;20048;-65
2023/12/25 08:27:23;;;;;;;4.15;1.52;;;;;;;9.05;100.00;100605.38;5033564;28;20029;-65
2023/12/25 08:29:48;;;;;;;3.08;1.40;;;;;;;9.09;100.00;100604.78;5034549;28;20054;-66
2023/12/25 08:32:13;;;;;;;3.13;1.30;;;;;;;9.09;100.00;100619.41;5035126;28;20037;-65
2023/12/25 08:34:40;;;;;;;3.15;1.20;;;;;;;9.11;100.00;100616.38;5037732;28;20033;-66
2023/12/25 08:37:05;;;;;;;4.00;1.45;;;;;;;9.10;100.00;100601.72;5037156;28;20036;-64
2023/12/25 08:39:31;;;;;;;5.88;1.70;;;;;;;9.15;100.00;100609.94;5035359;28;20501;-65
2023/12/25 08:42:00;;;;;;;5.85;1.50;;;;;;;9.18;100.00;100614.03;5035934;28;20451;-64
2023/12/25 08:44:26;;;;;;;4.53;1.13;;;;;;;9.18;100.00;100616.78;5039837;28;20155;-64
2023/12/25 08:46:51;;;;;;;3.70;1.70;;;;;;;9.21;100.00;100619.75;5034051;28;20089;-64
2023/12/25 08:49:16;;;;;;;3.30;1.13;;;;;;;9.23;100.00;100622.19;5041375;28;20034;-64
2023/12/25 08:51:42;;;;;;;4.72;1.60;;;;;;;9.26;100.00;100626.31;5037101;28;20037;-65
2023/12/25 08:54:07;;;;;;;8.52;1.48;;;;;;;9.25;100.00;100628.25;5034978;28;20040;-65
2023/12/25 08:56:32;;;;;;;4.43;1.40;;;;;;;9.26;100.00;100627.13;5040671;28;20052;-63
2023/12/25 08:58:59;;;;;;;3.88;1.70;;;;;;;9.19;100.00;100630.28;5046471;28;20071;-64
2023/12/25 09:01:25;;;;;;;4.70;1.33;;;;;;;9.18;100.00;100636.91;5043482;28;20021;-63
2023/12/25 09:03:50;;;;;;;3.30;1.33;;;;;;;9.20;100.00;100623.63;5038116;28;20017;-64
2023/12/25 09:06:16;;;;;;;6.80;1.30;;;;;;;9.23;100.00;100621.41;5048019;28;20396;-64
2023/12/25 09:08:41;;;;;;;4.18;1.33;;;;;;;9.23;100.00;100626.91;5044203;28;20384;-65
2023/12/25 09:11:09;;;;;;;3.10;1.13;;;;;;;9.19;100.00;100623.94;5038803;28;20112;-66
2023/12/25 09:13:35;;;;;;;4.25;1.13;;;;;;;9.23;100.00;100629.69;5045609;28;20020;-64
2023/12/25 09:16:00;;;;;;;4.32;1.20;;;;;;;9.23;100.00;100640.72;5048139;28;20330;-64
2023/12/25 09:18:26;;;;;;;3.35;1.50;;;;;;;9.23;100.00;100649.00;5047061;28;20026;-64
2023/12/25 09:20:51;;;;;;;2.15;0.93;;;;;;;9.21;100.00;100655.63;5047468;28;20029;-66
2023/12/25 09:23:18;;;;;;;1.70;0.90;;;;;;;9.18;100.00;100655.41;5043314;28;20037;-62
2023/12/25 09:25:43;;;;;;;0.98;0.68;;;;;;;9.21;100.00;100669.44;5040338;28;20475;-64
2023/12/25 09:28:09;;;;;;;2.60;0.95;;;;;;;9.20;100.00;100675.28;5050122;28;20048;-63
2023/12/25 09:30:34;;;;;;;3.58;1.00;;;;;;;9.19;100.00;100679.94;5050238;28;20021;-63
2023/12/25 09:32:59;;;;;;;3.97;1.00;;;;;;;9.17;100.00;100693.22;5050653;28;20067;-63
2023/12/25 09:35:24;;;;;;;4.53;1.45;;;;;;;9.22;100.00;100700.59;5048119;28;20025;-64
2023/12/25 09:37:50;;;;;;;4.65;1.05;;;;;;;9.23;100.00;100690.41;5049077;28;20063;-63
2023/12/25 09:40:15;;;;;;;2.20;1.00;;;;;;;9.22;100.00;100695.09;5047163;28;20063;-63
2023/12/25 09:42:41;;;;;;;3.00;0.90;;;;;;;9.24;100.00;100692.84;5047531;28;20025;-63
2023/12/25 09:45:09;;;;;;;2.70;1.00;;;;;;;9.28;100.00;100693.91;5047622;28;20116;-64
2023/12/25 09:47:35;;;;;;;4.25;1.27;;;;;;;9.34;100.00;100686.34;5047815;28;20495;-64
2023/12/25 09:50:03;;;;;;;8.43;1.40;;;;;;;9.35;100.00;100682.47;5048617;28;20025;-64
2023/12/25 09:52:28;;;;;;;4.82;1.30;;;;;;;9.35;100.00;100676.97;5049371;28;20070;-65
2023/12/25 09:54:54;;;;;;;6.65;1.63;;;;;;;9.36;100.00;100678.56;5049306;28;20353;-64
2023/12/25 09:57:20;;;;;;;2.90;1.05;;;;;;;9.38;100.00;100667.25;5050898;28;20404;-64
2023/12/25 09:59:49;;;;;;;4.38;1.50;;;;;;;9.39;100.00;100675.22;5051205;28;20055;-64
2023/12/25 10:02:15;;;;;;;7.07;1.73;;;;;;;9.43;100.00;100680.94;5051335;28;20123;-64
2023/12/25 10:04:44;;;;;;;1.85;1.30;;;;;;;9.44;100.00;100674.31;5051186;28;20032;-63
2023/12/25 10:07:09;;;;;;;3.70;1.50;;;;;;;9.46;100.00;100672.88;5050951;28;20083;-64
2023/12/25 10:09:34;;;;;;;2.15;1.35;;;;;;;9.45;100.00;100671.22;5051350;28;20056;-63
2023/12/25 10:11:59;;;;;;;5.47;1.33;;;;;;;9.46;100.00;100678.41;5051627;28;20176;-64
2023/12/25 10:14:25;;;;;;;3.63;1.55;;;;;;;9.44;100.00;100683.44;5051371;28;20428;-64
2023/12/25 10:16:50;;;;;;;4.38;1.60;;;;;;;9.45;100.00;100690.56;5051202;28;20024;-64
2023/12/25 10:19:15;;;;;;;3.78;1.70;;;;;;;9.48;100.00;100697.44;5051438;28;20048;-64
2023/12/25 10:21:44;;;;;;;6.07;1.67;;;;;;;9.44;100.00;100705.50;5051291;28;20408;-64
2023/12/25 10:24:16;;;;;;;4.35;1.60;;;;;;;9.42;100.00;100693.09;5050370;28;20033;-64
2023/12/25 10:26:45;;;;;;;6.25;1.50;;;;;;;9.41;100.00;100689.53;5051253;28;20029;-64
2023/12/25 10:29:11;;;;;;;3.33;1.70;;;;;;;9.41;100.00;100705.28;5051213;28;20029;-64
2023/12/25 10:31:43;;;;;;;7.18;1.77;;;;;;;9.36;100.00;100692.38;5051414;28;20079;-63
2023/12/25 10:34:09;;;;;;;4.03;1.50;;;;;;;9.34;100.00;100698.22;5051656;28;20036;-64
2023/12/25 10:36:34;;;;;;;5.15;1.38;;;;;;;9.36;100.00;100703.41;5051092;28;20029;-64
2023/12/25 10:39:00;;;;;;;5.72;1.35;;;;;;;9.25;100.00;100713.00;5051048;28;20029;-63
2023/12/25 10:41:28;;;;;;;4.93;1.50;;;;;;;9.27;100.00;100702.47;5051271;28;20079;-62
2023/12/25 10:43:57;;;;;;;4.10;1.23;;;;;;;9.19;100.00;100704.78;5050990;28;20427;-63
2023/12/25 10:46:23;;;;;;;3.88;1.40;;;;;;;9.12;100.00;100701.59;5051043;28;20068;-64
2023/12/25 10:48:50;;;;;;;3.78;1.33;;;;;;;9.10;100.00;100692.78;5050945;28;20030;-63
2023/12/25 10:51:23;;;;;;;9.32;1.80;;;;;;;9.11;100.00;100688.09;5050883;28;20040;-63
2023/12/25 10:53:49;;;;;;;6.78;1.60;;;;;;;9.12;100.00;100679.53;5050995;28;20112;-64
2023/12/25 10:56:16;;;;;;;4.25;1.60;;;;;;;9.15;100.00;100689.13;5051127;28;20021;-63
2023/12/25 10:58:42;;;;;;;5.95;1.50;;;;;;;9.17;100.00;100684.94;5050628;28;20036;-64
2023/12/25 11:01:07;;;;;;;9.80;1.75;;;;;;;9.23;100.00;100676.59;5050741;28;20025;-64
2023/12/25 11:03:33;;;;;;;4.40;1.80;;;;;;;9.25;100.00;100686.22;5050782;28;20533;-64
2023/12/25 11:05:59;;;;;;;7.95;1.80;;;;;;;9.29;100.00;100673.47;5050771;28;20070;-63